Time;durP1;ratioP1;P1;durP2;ratioP2;P2;SDS_P1;SDS_P2;PMS_P1;PMS_P2;Temp;Humidity;BMP_temperature;BMP_pressure;BME280_temperature;BME280_humidity;BME280_pressure;Samples;Min_cycle;Max_cycle;Signal;HPM_P1;HPM_P2
2023/05/14 01:00:33;;;;;;;;;;;;;;;;;;;;;
2023/05/14 01:03:52;;;;;;;;;;;;;;;;;;;;;
2023/05/14 01:17:22;;;;;;;0.00;0.00;;;;;;;11.38;77.95;101036.53;5893765;24;20067;-77
2023/05/14 01:24:27;;;;;;;0.00;0.00;;;;;;;11.32;77.84;101017.28;5950429;23;20103;-77
2023/05/14 01:48:15;;;;;;;0.00;0.00;;;;;;;11.08;78.87;101011.28;5944981;24;20429;-78
2023/05/14 01:55:12;;;;;;;;;;;;;;;;;;;;;
2023/05/14 02:12:55;;;;;;;;;;;;;;;;;;;;;
2023/05/14 02:15:41;;;;;;;0.00;0.00;;;;;;;11.04;78.86;101003.81;5968482;23;20086;-75
2023/05/14 02:18:58;;;;;;;;;;;;;;;;;;;;;
2023/05/14 02:22:34;;;;;;;;;;;;;;;;;;;;;
2023/05/14 02:25:49;;;;;;;0.00;0.00;;;;;;;11.00;79.20;101019.94;6005397;23;20495;-76
2023/05/14 02:31:48;;;;;;;0.00;0.00;;;;;;;10.91;79.22;101014.06;6062129;23;20444;-75
2023/05/14 02:34:25;;;;;;;;;;;;;;;;;;;;;
2023/05/14 02:36:54;;;;;;;0.00;0.00;;;;;;;10.89;79.44;101004.47;6021641;23;20083;-75
2023/05/14 02:39:19;;;;;;;0.00;0.00;;;;;;;10.93;79.72;101014.63;6053210;23;20013;-75
2023/05/14 02:41:45;;;;;;;0.00;0.00;;;;;;;10.93;79.27;101020.09;6082673;23;20011;-75
2023/05/14 02:44:10;;;;;;;0.00;0.00;;;;;;;10.89;79.49;101018.13;6037994;23;20006;-75
2023/05/14 02:46:36;;;;;;;0.00;0.00;;;;;;;11.07;79.36;101038.88;6114961;23;20010;-77
2023/05/14 02:49:02;;;;;;;0.10;0.10;;;;;;;10.92;80.13;101018.47;6060534;23;20020;-77
2023/05/14 02:51:27;;;;;;;0.00;0.00;;;;;;;11.05;79.76;101033.66;6168256;23;20014;-76
2023/05/14 02:54:00;;;;;;;0.00;0.00;;;;;;;10.87;79.50;101010.19;6085364;23;20352;-77
2023/05/14 02:56:27;;;;;;;0.00;0.00;;;;;;;10.91;79.68;101027.75;6089819;23;20009;-76
2023/05/14 02:58:53;;;;;;;0.00;0.00;;;;;;;10.90;79.93;101020.63;6085715;23;20002;-75
2023/05/14 03:01:18;;;;;;;0.00;0.00;;;;;;;10.96;79.94;101022.34;6114996;23;20017;-77
2023/05/14 03:03:51;;;;;;;0.00;0.00;;;;;;;10.84;80.11;101005.22;6041835;23;20006;-78
2023/05/14 03:06:19;;;;;;;0.00;0.00;;;;;;;10.87;80.20;101023.88;6060166;23;20016;-77
2023/05/14 03:08:46;;;;;;;0.00;0.00;;;;;;;10.69;80.79;100996.78;6090755;23;20022;-76
2023/05/14 03:11:11;;;;;;;0.00;0.00;;;;;;;10.68;80.65;101014.31;6213406;23;20010;-76
2023/05/14 03:13:37;;;;;;;0.00;0.00;;;;;;;10.62;80.57;101014.22;6089645;23;20057;-76
2023/05/14 03:16:02;;;;;;;0.00;0.00;;;;;;;10.62;81.87;101036.09;6090565;23;20033;-77
2023/05/14 03:18:29;;;;;;;0.00;0.00;;;;;;;10.37;82.19;101005.66;6110473;23;20002;-76
2023/05/14 03:21:02;;;;;;;0.00;0.00;;;;;;;10.48;81.80;101032.06;6116037;23;20388;-77
2023/05/14 03:23:27;;;;;;;0.00;0.00;;;;;;;10.50;82.19;101038.13;6082048;23;20097;-76
2023/05/14 03:25:53;;;;;;;0.00;0.00;;;;;;;10.42;81.80;101030.34;6090161;23;20085;-76
2023/05/14 03:28:20;;;;;;;0.00;0.00;;;;;;;10.38;82.00;101023.72;6062238;23;20009;-75
2023/05/14 03:30:46;;;;;;;0.00;0.00;;;;;;;10.45;82.73;101035.31;6089573;23;20041;-75
2023/05/14 03:33:11;;;;;;;0.00;0.00;;;;;;;10.33;82.79;101009.94;6087511;23;20006;-75
2023/05/14 03:35:37;;;;;;;0.00;0.00;;;;;;;10.35;83.38;101024.22;6187780;23;20021;-76
2023/05/14 03:38:05;;;;;;;0.05;0.05;;;;;;;10.28;83.04;101019.72;6091626;23;20380;-76
2023/05/14 03:40:30;;;;;;;0.00;0.00;;;;;;;10.38;83.19;101034.63;6210814;22;20006;-76
2023/05/14 03:42:56;;;;;;;0.00;0.00;;;;;;;10.28;83.50;101014.25;6114647;23;20387;-76
2023/05/14 03:45:24;;;;;;;0.00;0.00;;;;;;;10.29;83.14;101015.06;6112382;23;20073;-75
2023/05/14 03:47:49;;;;;;;0.00;0.00;;;;;;;10.44;82.89;101029.00;6089264;23;20344;-75
2023/05/14 03:50:14;;;;;;;0.00;0.00;;;;;;;10.46;83.00;101026.03;6065442;23;20021;-76
2023/05/14 03:52:45;;;;;;;0.00;0.00;;;;;;;10.51;82.57;101017.88;6063260;23;20094;-75
2023/05/14 03:55:11;;;;;;;0.00;0.00;;;;;;;10.39;82.76;100987.91;6170458;23;20017;-76
2023/05/14 03:57:36;;;;;;;0.00;0.00;;;;;;;10.57;83.24;101022.38;6089239;23;20010;-76
2023/05/14 04:00:03;;;;;;;0.00;0.00;;;;;;;10.46;82.42;101004.97;6043180;23;20285;-76
2023/05/14 04:02:33;;;;;;;0.00;0.00;;;;;;;10.37;83.08;100986.53;6065114;23;20022;-76
2023/05/14 04:04:58;;;;;;;0.00;0.00;;;;;;;10.48;82.78;101004.72;6114526;23;20010;-77
2023/05/14 04:07:26;;;;;;;0.00;0.00;;;;;;;10.45;82.77;101002.50;6065384;23;20006;-76
2023/05/14 04:10:01;;;;;;;0.00;0.00;;;;;;;10.39;82.88;100987.91;6187264;22;20344;-76
2023/05/14 04:12:27;;;;;;;0.00;0.00;;;;;;;10.36;82.77;100987.59;6143289;23;20009;-77
2023/05/14 04:14:52;;;;;;;0.00;0.00;;;;;;;10.40;82.43;100994.22;6093255;23;20017;-76
2023/05/14 04:17:18;;;;;;;0.00;0.00;;;;;;;10.35;83.03;100991.41;6120558;23;20428;-77
2023/05/14 04:19:43;;;;;;;0.00;0.00;;;;;;;10.35;82.78;100985.94;6140639;23;20427;-76
2023/05/14 04:22:17;;;;;;;0.00;0.00;;;;;;;10.34;82.68;100967.88;6121648;23;20010;-77
2023/05/14 04:24:43;;;;;;;0.00;0.00;;;;;;;10.43;82.43;100982.78;6113465;23;20001;-76
2023/05/14 04:27:08;;;;;;;0.00;0.00;;;;;;;10.52;82.92;101002.31;6199731;23;20018;-76
2023/05/14 04:29:34;;;;;;;0.00;0.00;;;;;;;10.55;82.96;100990.88;6093748;23;20313;-76
2023/05/14 04:32:02;;;;;;;0.00;0.00;;;;;;;10.46;82.71;100983.09;6118007;22;20075;-76
2023/05/14 04:34:28;;;;;;;0.00;0.00;;;;;;;10.53;82.57;101003.97;6119120;23;20029;-77
2023/05/14 04:36:56;;;;;;;0.00;0.00;;;;;;;10.43;82.73;100994.53;6142834;23;20016;-76
2023/05/14 04:39:21;;;;;;;0.00;0.00;;;;;;;10.42;83.35;101000.25;6120412;23;20029;-77
2023/05/14 04:41:47;;;;;;;0.00;0.00;;;;;;;10.31;82.67;100980.94;6095131;23;20063;-75
2023/05/14 04:44:15;;;;;;;0.00;0.00;;;;;;;10.30;82.86;100976.53;6069400;23;20324;-77
2023/05/14 04:46:41;;;;;;;0.00;0.00;;;;;;;10.48;82.58;100997.38;6120522;23;20391;-75
2023/05/14 04:49:07;;;;;;;0.00;0.00;;;;;;;10.40;82.64;100983.28;6092161;23;20009;-75
2023/05/14 04:51:34;;;;;;;0.00;0.00;;;;;;;10.52;82.64;101003.16;6095867;23;20080;-75
2023/05/14 04:54:05;;;;;;;0.00;0.00;;;;;;;10.39;82.61;100976.16;6143147;23;20082;-76
2023/05/14 04:56:34;;;;;;;0.00;0.00;;;;;;;10.36;82.43;100979.41;6144927;23;20051;-76
2023/05/14 04:58:59;;;;;;;0.00;0.00;;;;;;;10.53;82.59;100993.03;6143124;23;20012;-76
2023/05/14 05:01:27;;;;;;;0.00;0.00;;;;;;;10.41;82.15;100969.38;6095787;23;20014;-75
2023/05/14 05:03:52;;;;;;;0.00;0.00;;;;;;;10.40;81.73;100969.63;6119442;23;20184;-76
2023/05/14 05:06:18;;;;;;;0.00;0.00;;;;;;;10.33;82.31;100960.75;6066687;23;20435;-77
2023/05/14 05:08:43;;;;;;;0.00;0.00;;;;;;;10.50;82.29;100983.44;6139171;23;20022;-77
2023/05/14 05:11:09;;;;;;;0.00;0.00;;;;;;;10.57;81.83;100986.81;6088726;23;20349;-76
2023/05/14 05:13:34;;;;;;;0.00;0.00;;;;;;;10.47;81.18;100973.00;6067352;23;20018;-76
2023/05/14 05:16:00;;;;;;;0.00;0.00;;;;;;;10.39;81.48;100951.56;6112104;23;20002;-77
2023/05/14 05:18:25;;;;;;;0.00;0.00;;;;;;;10.47;81.23;100975.75;6068492;23;20014;-77
2023/05/14 05:20:51;;;;;;;0.00;0.00;;;;;;;10.46;81.72;100961.22;6090135;23;20147;-77
2023/05/14 05:23:16;;;;;;;0.00;0.00;;;;;;;10.59;81.03;100981.91;6089198;23;20358;-76
2023/05/14 05:25:42;;;;;;;0.00;0.00;;;;;;;10.67;81.12;100983.38;6116476;23;20438;-76
2023/05/14 05:28:07;;;;;;;0.00;0.00;;;;;;;10.69;81.20;100975.75;6067062;23;20444;-77
2023/05/14 05:30:32;;;;;;;0.00;0.00;;;;;;;10.80;81.08;100984.91;6062531;23;20422;-76
2023/05/14 05:32:58;;;;;;;0.00;0.00;;;;;;;10.74;80.60;100966.78;6091285;23;20002;-77
2023/05/14 05:35:31;;;;;;;0.00;0.00;;;;;;;10.72;80.40;100961.56;6086365;23;20002;-77
2023/05/14 05:38:17;;;;;;;0.10;0.10;;;;;;;10.71;79.85;100959.91;6092573;23;20052;-77
2023/05/14 05:40:42;;;;;;;0.00;0.00;;;;;;;10.78;80.38;100984.34;6085342;23;20181;-76
2023/05/14 05:43:08;;;;;;;0.00;0.00;;;;;;;10.65;79.95;100948.06;6092801;23;20463;-77
2023/05/14 05:45:36;;;;;;;0.00;0.00;;;;;;;10.70;79.71;100943.75;6111272;23;20321;-76
2023/05/14 05:48:04;;;;;;;0.00;0.00;;;;;;;10.82;79.71;100952.69;6092258;23;20017;-76
2023/05/14 05:50:32;;;;;;;0.00;0.00;;;;;;;10.92;79.62;100955.53;6062770;23;20010;-76
2023/05/14 05:53:03;;;;;;;0.00;0.00;;;;;;;11.10;79.28;100976.25;6117828;23;20009;-76
2023/05/14 05:55:29;;;;;;;0.00;0.00;;;;;;;11.21;79.43;100976.38;6116987;23;20063;-74
2023/05/14 05:57:54;;;;;;;0.00;0.00;;;;;;;11.22;78.54;100965.16;6089853;23;20014;-75
2023/05/14 06:00:20;;;;;;;0.00;0.00;;;;;;;11.31;78.66;100955.41;6069758;23;20006;-77
2023/05/14 06:02:49;;;;;;;0.00;0.00;;;;;;;11.46;78.38;100953.91;6060361;23;20022;-76
2023/05/14 06:05:19;;;;;;;0.00;0.00;;;;;;;11.63;77.64;100979.28;6117719;23;20006;-78
2023/05/14 06:07:47;;;;;;;0.00;0.00;;;;;;;11.60;77.26;100974.31;6086449;23;20049;-78
2023/05/14 06:10:12;;;;;;;0.00;0.00;;;;;;;11.49;77.57;100956.13;6158461;23;20444;-76
2023/05/14 06:12:39;;;;;;;0.00;0.00;;;;;;;11.56;77.41;100984.13;6187101;23;20010;-77
2023/05/14 06:15:05;;;;;;;0.00;0.00;;;;;;;11.36;78.02;100965.59;6216442;23;20455;-76
2023/05/14 06:17:30;;;;;;;0.00;0.00;;;;;;;11.48;77.85;100982.69;6217992;23;20014;-74
2023/05/14 06:19:56;;;;;;;0.00;0.00;;;;;;;11.64;77.38;100991.88;6113378;23;20077;-75
2023/05/14 06:22:31;;;;;;;;;;;;;;;;;;;;;
2023/05/14 06:25:07;;;;;;;;;;;;;;;;;;;;;
2023/05/14 06:27:33;;;;;;;0.00;0.00;;;;;;;11.65;77.04;100971.63;6210738;23;20386;-75
2023/05/14 06:29:58;;;;;;;0.00;0.00;;;;;;;11.69;76.75;100980.16;6113012;23;20029;-75
2023/05/14 06:32:26;;;;;;;0.00;0.00;;;;;;;11.52;76.27;100961.94;6116071;23;20765;-76
2023/05/14 06:34:54;;;;;;;0.00;0.00;;;;;;;11.66;76.32;100970.53;6203100;23;20018;-76
2023/05/14 06:37:54;;;;;;;0.00;0.00;;;;;;;11.57;75.83;100952.09;6169122;23;20014;-76
2023/05/14 06:41:26;;;;;;;;;;;;;;;;;;;;;
2023/05/14 06:44:34;;;;;;;;;;;;;;;;;;;;;
2023/05/14 06:55:28;;;;;;;;;;;;;;;;;;;;;
2023/05/14 07:01:23;;;;;;;0.00;0.00;;;;;;;12.76;72.52;100971.03;5821814;24;20515;-75
2023/05/14 07:07:04;;;;;;;0.00;0.00;;;;;;;12.96;72.83;100964.00;6112784;23;20092;-75
2023/05/14 07:10:32;;;;;;;;;;;;;;;;;;;;;
2023/05/14 07:17:07;;;;;;;0.00;0.00;;;;;;;12.67;71.07;100915.03;5994298;23;20035;-74
2023/05/14 07:20:27;;;;;;;0.00;0.00;;;;;;;12.87;71.63;100914.28;5994100;23;20792;-75
2023/05/14 07:23:45;;;;;;;;;;;;;;;;;;;;;
2023/05/14 07:26:20;;;;;;;0.00;0.00;;;;;;;13.97;69.40;100936.97;6028643;23;20094;-76
2023/05/14 07:32:02;;;;;;;0.00;0.00;;;;;;;14.09;68.07;100923.75;5947336;23;20036;-75
2023/05/14 07:35:16;;;;;;;0.00;0.00;;;;;;;14.18;67.31;100967.19;5988946;23;20007;-76
2023/05/14 07:37:57;;;;;;;;;;;;;;;;;;;;;
2023/05/14 07:54:15;;;;;;;0.00;0.00;;;;;;;14.26;66.44;100947.38;5943105;23;20036;-78
2023/05/14 07:56:41;;;;;;;0.00;0.00;;;;;;;14.64;65.48;100950.63;6030930;23;20394;-77
2023/05/14 07:59:18;;;;;;;0.00;0.00;;;;;;;14.88;64.88;100945.28;6004240;23;20011;-78
2023/05/14 08:01:45;;;;;;;0.00;0.00;;;;;;;15.11;64.49;100942.97;6091289;23;20032;-76
2023/05/14 08:04:15;;;;;;;0.00;0.00;;;;;;;15.28;63.26;100942.59;6141175;23;20058;-77
2023/05/14 08:06:45;;;;;;;0.00;0.00;;;;;;;15.31;63.18;100931.00;6095803;23;20013;-76
2023/05/14 08:09:10;;;;;;;0.00;0.00;;;;;;;15.74;62.27;100936.78;6108509;23;20024;-77
2023/05/14 08:11:45;;;;;;;0.00;0.00;;;;;;;16.06;61.21;100949.19;6091006;23;20444;-78
2023/05/14 08:14:13;;;;;;;0.00;0.00;;;;;;;16.57;60.72;100940.38;6067360;23;20010;-76
2023/05/14 08:16:39;;;;;;;0.00;0.00;;;;;;;16.86;58.71;100963.50;6092206;23;20093;-75
2023/05/14 08:19:09;;;;;;;0.00;0.00;;;;;;;16.34;57.99;100941.19;6115942;23;20035;-77
2023/05/14 08:21:47;;;;;;;;;;;;;;;;;;;;;
2023/05/14 08:24:20;;;;;;;0.00;0.00;;;;;;;15.85;59.59;100924.53;6117151;23;20070;-75
2023/05/14 08:26:49;;;;;;;0.00;0.00;;;;;;;16.07;60.05;100914.97;6114970;23;20698;-76
2023/05/14 08:29:25;;;;;;;0.00;0.00;;;;;;;16.58;59.85;100955.81;6114622;23;20048;-75
2023/05/14 08:31:51;;;;;;;0.00;0.00;;;;;;;16.70;59.31;100919.50;6087746;23;20006;-76
2023/05/14 08:34:19;;;;;;;0.00;0.00;;;;;;;17.25;59.25;100932.09;6088249;23;20381;-76
2023/05/14 08:36:45;;;;;;;0.00;0.00;;;;;;;18.13;57.85;100953.63;6110175;23;20016;-75
2023/05/14 08:39:10;;;;;;;0.00;0.00;;;;;;;18.49;57.05;100925.28;6115763;23;20010;-75
2023/05/14 08:41:38;;;;;;;0.00;0.00;;;;;;;18.53;56.50;100915.25;6068772;23;20092;-76
2023/05/14 08:44:30;;;;;;;0.00;0.00;;;;;;;18.43;56.88;100921.78;6086237;23;20712;-75
2023/05/14 08:46:56;;;;;;;0.00;0.00;;;;;;;18.24;57.17;100908.03;6089468;23;20079;-75
2023/05/14 08:49:41;;;;;;;0.00;0.00;;;;;;;17.86;57.51;100930.28;6113233;23;20021;-75
2023/05/14 08:52:18;;;;;;;0.00;0.00;;;;;;;17.27;58.74;100911.31;6088048;23;20021;-75
2023/05/14 08:54:56;;;;;;;0.00;0.00;;;;;;;17.31;58.87;100897.72;6091401;23;20010;-74
2023/05/14 08:57:25;;;;;;;0.00;0.00;;;;;;;17.51;58.58;100906.78;6113705;23;20146;-76
2023/05/14 08:59:51;;;;;;;0.00;0.00;;;;;;;17.30;57.98;100900.78;6089428;23;20014;-76
2023/05/14 09:02:32;;;;;;;;;;;;;;;;;;;;;
2023/05/14 09:05:02;;;;;;;0.00;0.00;;;;;;;17.07;58.14;100893.09;6116609;23;20093;-76
2023/05/14 09:07:27;;;;;;;0.00;0.00;;;;;;;17.34;58.93;100896.28;6217187;22;20368;-76
2023/05/14 09:09:54;;;;;;;0.00;0.00;;;;;;;17.53;58.64;100902.63;6231909;22;20020;-77
2023/05/14 09:12:20;;;;;;;0.00;0.00;;;;;;;17.55;57.72;100888.47;6120647;23;20017;-76
2023/05/14 09:14:47;;;;;;;0.00;0.00;;;;;;;17.67;57.44;100896.31;6141791;23;20012;-77
2023/05/14 09:17:13;;;;;;;0.00;0.00;;;;;;;17.73;57.71;100895.13;6144290;23;20006;-77
2023/05/14 09:19:42;;;;;;;0.00;0.00;;;;;;;17.77;57.03;100909.97;6140673;23;20012;-76
2023/05/14 09:22:13;;;;;;;0.00;0.00;;;;;;;17.29;57.54;100886.16;6119574;23;20088;-75
2023/05/14 09:24:41;;;;;;;0.00;0.00;;;;;;;16.92;58.04;100883.09;6116093;23;20352;-75
2023/05/14 09:27:08;;;;;;;0.00;0.00;;;;;;;16.89;58.93;100882.84;6144832;23;20054;-76
2023/05/14 09:29:36;;;;;;;0.00;0.00;;;;;;;16.83;59.38;100870.19;6116681;23;20066;-76
2023/05/14 09:32:10;;;;;;;0.00;0.00;;;;;;;17.07;60.28;100890.34;6142506;23;20293;-76
2023/05/14 09:34:41;;;;;;;0.00;0.00;;;;;;;17.33;60.08;100900.97;6118003;23;20012;-76
2023/05/14 09:37:11;;;;;;;0.00;0.00;;;;;;;17.59;59.36;100903.34;6070308;23;20016;-77
2023/05/14 09:39:37;;;;;;;0.00;0.00;;;;;;;17.72;59.60;100885.16;6142799;23;20605;-76
2023/05/14 09:42:03;;;;;;;0.00;0.00;;;;;;;17.91;59.28;100879.59;6118159;23;20005;-77
2023/05/14 09:44:38;;;;;;;0.00;0.00;;;;;;;18.01;58.89;100892.44;6120713;23;20006;-77
2023/05/14 09:47:04;;;;;;;0.00;0.00;;;;;;;18.41;58.72;100896.38;6145120;23;20036;-75
2023/05/14 09:49:29;;;;;;;0.00;0.00;;;;;;;18.82;58.56;100906.59;6224727;22;19998;-78
2023/05/14 09:51:56;;;;;;;0.00;0.00;;;;;;;18.88;58.27;100882.41;6121453;23;20432;-75
2023/05/14 09:54:26;;;;;;;0.00;0.00;;;;;;;19.33;57.91;100893.56;6116158;23;20017;-76
2023/05/14 09:56:52;;;;;;;0.00;0.00;;;;;;;19.44;56.60;100887.78;6100085;23;20091;-75
2023/05/14 09:59:17;;;;;;;0.00;0.00;;;;;;;19.68;56.71;100904.06;6196981;23;20005;-77
2023/05/14 10:01:43;;;;;;;0.00;0.00;;;;;;;19.90;56.88;100894.94;6124374;23;20013;-75
2023/05/14 10:04:09;;;;;;;0.00;0.00;;;;;;;20.46;57.35;100883.41;6120474;23;20016;-78
2023/05/14 10:06:45;;;;;;;0.00;0.00;;;;;;;21.03;54.93;100879.84;6123691;23;20048;-77
2023/05/14 10:09:31;;;;;;;;;;;;;;;;;;;;;
2023/05/14 10:12:08;;;;;;;0.00;0.00;;;;;;;30.42;39.78;100906.88;6122750;23;20053;-78
2023/05/14 10:14:55;;;;;;;;;;;;;;;;;;;;;
2023/05/14 10:17:32;;;;;;;0.00;0.00;;;;;;;35.34;26.55;100893.28;6116139;23;20069;-77
2023/05/14 10:20:01;;;;;;;0.00;0.00;;;;;;;37.24;26.09;100888.44;6118233;23;20034;-76
2023/05/14 10:22:39;;;;;;;0.00;0.00;;;;;;;39.05;23.52;100895.00;6194059;23;20853;-76
2023/05/14 10:25:08;;;;;;;0.00;0.00;;;;;;;40.59;20.52;100884.81;6114965;23;20010;-78
2023/05/14 10:27:36;;;;;;;0.00;0.00;;;;;;;41.96;20.86;100879.59;6093647;23;20200;-78
2023/05/14 10:30:14;;;;;;;0.00;0.00;;;;;;;42.80;17.74;100875.56;6217471;23;20328;-79
2023/05/14 10:32:40;;;;;;;0.00;0.00;;;;;;;43.20;18.43;100874.50;6094800;23;20463;-76
2023/05/14 10:35:19;;;;;;;0.00;0.00;;;;;;;44.21;16.90;100883.19;6118722;23;20433;-78
2023/05/14 10:37:52;;;;;;;0.00;0.00;;;;;;;44.42;17.06;100881.28;6120186;23;20012;-82
2023/05/14 10:40:20;;;;;;;;;;;;;;;45.95;16.35;100881.88;6091263;23;20371;-80
2023/05/14 10:42:46;;;;;;;0.00;0.00;;;;;;;46.62;16.32;100881.19;6068496;23;19909;-77
2023/05/14 10:45:14;;;;;;;0.00;0.00;;;;;;;47.74;15.95;100850.88;6089159;23;20024;-77
2023/05/14 10:47:45;;;;;;;0.00;0.00;;;;;;;48.00;13.91;100844.13;6113766;23;20016;-76
2023/05/14 10:50:15;;;;;;;0.00;0.00;;;;;;;48.41;14.65;100856.16;6213887;22;20092;-78
2023/05/14 10:52:47;;;;;;;0.00;0.00;;;;;;;48.39;14.27;100852.97;6091622;23;20010;-81
2023/05/14 10:55:15;;;;;;;0.00;0.00;;;;;;;49.61;14.20;100854.97;6092034;23;20722;-78
2023/05/14 10:57:46;;;;;;;0.00;0.00;;;;;;;50.24;13.25;100851.84;6085984;23;20483;-80
2023/05/14 11:00:17;;;;;;;0.00;0.00;;;;;;;51.88;12.80;100861.38;6192195;23;20024;-80
2023/05/14 11:02:45;;;;;;;0.00;0.00;;;;;;;48.62;13.65;100829.09;6087360;23;20005;-80
2023/05/14 11:05:16;;;;;;;0.00;0.00;;;;;;;45.24;15.34;100840.59;6069149;23;20006;-78
2023/05/14 11:08:17;;;;;;;0.00;0.00;;;;;;;43.64;16.44;100846.56;6087703;23;20067;-79
2023/05/14 11:10:46;;;;;;;0.00;0.00;;;;;;;43.06;17.29;100840.69;6090669;23;20021;-79
2023/05/14 11:13:11;;;;;;;0.00;0.00;;;;;;;40.37;18.16;100834.00;6090667;23;20313;-78
2023/05/14 11:15:47;;;;;;;0.00;0.00;;;;;;;37.05;21.18;100816.78;6090243;23;20070;-81
2023/05/14 11:18:12;;;;;;;0.00;0.00;;;;;;;37.48;21.39;100818.66;6114059;23;20012;-78
2023/05/14 11:20:38;;;;;;;0.00;0.00;;;;;;;36.68;22.35;100813.88;6090883;23;20218;-78
2023/05/14 11:23:27;;;;;;;0.00;0.00;;;;;;;36.71;22.43;100817.06;6040108;23;20443;-79
2023/05/14 11:25:54;;;;;;;0.00;0.00;;;;;;;37.65;22.16;100808.09;6089469;23;20440;-79
2023/05/14 11:28:21;;;;;;;0.00;0.00;;;;;;;38.53;21.79;100821.75;6086137;23;20085;-79
2023/05/14 11:30:53;;;;;;;0.00;0.00;;;;;;;41.83;19.74;100817.34;6090378;23;20081;-78
2023/05/14 11:33:19;;;;;;;0.00;0.00;;;;;;;43.07;17.48;100799.13;6063262;23;20060;-79
2023/05/14 11:35:45;;;;;;;0.00;0.00;;;;;;;40.31;18.61;100815.81;6089523;23;20013;-78
2023/05/14 11:38:21;;;;;;;0.00;0.00;;;;;;;38.80;20.92;100794.91;6091092;23;20420;-79
2023/05/14 11:40:58;;;;;;;0.00;0.00;;;;;;;41.43;18.71;100800.94;6064012;23;20013;-78
2023/05/14 11:43:28;;;;;;;0.00;0.00;;;;;;;43.67;17.43;100799.50;6088265;23;20039;-78
2023/05/14 11:46:01;;;;;;;0.00;0.00;;;;;;;42.25;16.77;100770.03;6063017;23;20092;-78
2023/05/14 11:48:26;;;;;;;0.00;0.00;;;;;;;43.36;17.17;100798.53;6068836;23;20068;-78
2023/05/14 11:50:57;;;;;;;0.00;0.00;;;;;;;44.35;15.87;100777.91;6086519;23;20364;-79
2023/05/14 11:53:38;;;;;;;0.00;0.00;;;;;;;44.57;15.86;100795.63;6090424;23;20021;-79
2023/05/14 11:56:03;;;;;;;0.00;0.00;;;;;;;44.71;15.62;100787.50;6086360;23;20010;-79
2023/05/14 11:58:34;;;;;;;0.00;0.00;;;;;;;45.48;15.03;100785.66;6117683;23;20009;-79
2023/05/14 12:01:02;;;;;;;0.00;0.00;;;;;;;43.39;15.43;100773.75;6084440;23;20006;-79
2023/05/14 12:03:29;;;;;;;0.00;0.00;;;;;;;41.91;17.13;100773.97;6066576;23;20432;-80
2023/05/14 12:05:59;;;;;;;0.00;0.00;;;;;;;42.59;16.76;100773.03;6060657;23;20017;-79
2023/05/14 12:08:30;;;;;;;0.00;0.00;;;;;;;42.65;16.78;100779.72;6116693;22;20025;-78
2023/05/14 12:10:58;;;;;;;0.00;0.00;;;;;;;43.69;16.43;100765.25;6115031;23;20002;-79
2023/05/14 12:13:28;;;;;;;0.00;0.00;;;;;;;44.31;15.42;100774.41;6142952;22;20002;-78
2023/05/14 12:15:56;;;;;;;0.00;0.00;;;;;;;44.83;15.54;100780.63;6116967;23;20006;-79
2023/05/14 12:18:33;;;;;;;0.00;0.00;;;;;;;43.94;15.33;100769.75;6143378;23;20434;-78
2023/05/14 12:21:12;;;;;;;0.00;0.00;;;;;;;43.12;16.06;100775.44;6142346;23;20058;-81
2023/05/14 12:23:40;;;;;;;0.00;0.00;;;;;;;41.17;16.93;100774.53;6121079;23;20105;-80
2023/05/14 12:26:52;;;;;;;0.00;0.00;;;;;;;37.90;20.02;100778.16;6116744;23;20005;-78
2023/05/14 14:19:44;;;;;;;0.00;0.00;;;;;;;38.00;17.77;100688.59;5976400;24;20046;-77
2023/05/14 14:40:09;;;;;;;;;;;;;;;;;;;;;
2023/05/14 18:08:31;;;;;;;0.00;0.00;;;;;;;18.19;53.03;100559.41;6138835;23;20104;-79
2023/05/14 18:10:58;;;;;;;0.00;0.00;;;;;;;17.88;53.97;100545.47;6241201;22;20071;-78
2023/05/14 18:17:00;;;;;;;;;;;;;;;;;;;;;
2023/05/14 18:19:33;;;;;;;0.00;0.00;;;;;;;17.59;55.80;100561.28;6147242;23;20513;-77
2023/05/14 18:21:59;;;;;;;0.00;0.00;;;;;;;17.53;55.49;100570.84;6147960;23;20005;-78
2023/05/14 18:24:25;;;;;;;0.00;0.00;;;;;;;17.44;54.95;100570.75;6148340;23;20071;-77
2023/05/14 18:26:50;;;;;;;0.00;0.00;;;;;;;17.43;54.85;100579.34;6147413;23;20005;-78
2023/05/14 18:29:18;;;;;;;0.00;0.00;;;;;;;17.31;54.50;100576.28;6143898;23;20013;-80
2023/05/14 18:31:46;;;;;;;0.00;0.00;;;;;;;17.22;54.21;100579.78;6142190;23;20001;-79
2023/05/14 18:34:13;;;;;;;0.00;0.00;;;;;;;17.09;55.52;100569.53;6146953;23;20009;-79
2023/05/14 18:36:39;;;;;;;0.00;0.00;;;;;;;17.15;56.17;100595.13;6224754;23;20037;-80
2023/05/14 18:39:05;;;;;;;0.00;0.00;;;;;;;16.88;57.19;100567.16;6120351;22;20016;-79
2023/05/14 18:41:31;;;;;;;0.00;0.00;;;;;;;16.92;57.35;100587.53;6252487;22;20412;-81
2023/05/14 18:44:15;;;;;;;0.00;0.00;;;;;;;16.56;57.68;100546.72;6144675;23;20005;-79
2023/05/14 18:46:41;;;;;;;0.00;0.00;;;;;;;16.49;57.87;100557.34;6146544;23;20006;-80
2023/05/14 18:49:06;;;;;;;0.00;0.00;;;;;;;16.37;58.33;100554.25;6146989;23;20068;-79
2023/05/14 18:51:32;;;;;;;0.00;0.00;;;;;;;16.34;58.81;100582.44;6147190;23;20384;-81
2023/05/14 18:54:10;;;;;;;0.00;0.00;;;;;;;16.30;59.11;100597.97;6146204;23;20332;-78
2023/05/14 18:56:38;;;;;;;0.00;0.00;;;;;;;16.08;59.26;100580.09;6145597;23;20013;-82
2023/05/14 18:59:13;;;;;;;0.00;0.00;;;;;;;16.03;59.82;100577.41;6118896;23;20447;-79
2023/05/14 19:01:41;;;;;;;0.00;0.00;;;;;;;15.83;59.54;100562.00;6148020;23;20009;-77
2023/05/14 19:04:07;;;;;;;0.00;0.00;;;;;;;15.98;59.57;100585.75;6138869;23;20066;-78
2023/05/14 19:06:32;;;;;;;0.00;0.00;;;;;;;15.96;59.60;100574.19;6274185;22;20009;-79
2023/05/14 19:09:13;;;;;;;0.00;0.00;;;;;;;15.95;59.40;100581.66;6119868;22;20096;-81
2023/05/14 19:11:59;;;;;;;0.00;0.00;;;;;;;15.84;60.50;100592.03;6146080;23;20041;-79
2023/05/14 19:14:41;;;;;;;0.00;0.00;;;;;;;15.41;61.00;100534.13;6139203;23;20431;-80
2023/05/14 19:17:15;;;;;;;0.00;0.00;;;;;;;15.35;61.54;100543.59;6215624;23;20081;-81
2023/05/14 19:19:40;;;;;;;0.00;0.00;;;;;;;15.34;61.89;100561.22;6144588;23;20009;-78
2023/05/14 19:22:06;;;;;;;0.00;0.00;;;;;;;15.29;62.14;100555.78;6141933;23;20478;-76
2023/05/14 19:24:36;;;;;;;0.00;0.00;;;;;;;15.55;61.84;100583.84;6138692;23;20009;-80
2023/05/14 19:27:02;;;;;;;0.00;0.00;;;;;;;15.62;61.84;100588.97;6141592;23;20043;-80
2023/05/14 19:29:27;;;;;;;0.00;0.00;;;;;;;15.53;62.44;100586.06;6144157;23;20002;-80
2023/05/14 19:31:55;;;;;;;0.00;0.00;;;;;;;15.26;62.45;100564.63;6117176;23;20001;-79
2023/05/14 19:34:34;;;;;;;;;;;;;;;;;;;;;
2023/05/14 19:37:13;;;;;;;;;;;;;;;;;;;;;
2023/05/14 19:39:46;;;;;;;0.00;0.00;;;;;;;15.01;63.75;100581.16;6147817;23;20084;-85
2023/05/14 19:42:12;;;;;;;0.00;0.00;;;;;;;14.74;64.12;100559.69;6141843;23;20016;-82
2023/05/14 19:44:42;;;;;;;0.00;0.00;;;;;;;14.89;64.28;100599.19;6153333;23;20092;-80
2023/05/14 19:47:08;;;;;;;0.00;0.00;;;;;;;14.59;64.97;100562.56;6252168;22;20520;-79
2023/05/14 19:49:40;;;;;;;0.00;0.00;;;;;;;14.73;65.30;100602.06;6149480;23;20001;-75
2023/05/14 19:52:09;;;;;;;0.00;0.00;;;;;;;14.60;65.76;100591.72;6148927;23;20084;-79
2023/05/14 19:54:42;;;;;;;0.00;0.00;;;;;;;14.52;65.94;100592.34;6151840;23;20079;-77
2023/05/14 19:57:08;;;;;;;0.00;0.00;;;;;;;14.53;66.34;100600.31;6148559;23;20005;-79
2023/05/14 19:59:37;;;;;;;0.00;0.00;;;;;;;14.47;66.92;100595.94;6148797;23;20014;-77
2023/05/14 20:02:16;;;;;;;0.00;0.00;;;;;;;14.48;67.73;100609.44;6254282;22;20010;-77
2023/05/14 20:04:44;;;;;;;0.00;0.00;;;;;;;14.34;67.88;100605.72;6153416;23;20016;-78
2023/05/14 20:07:20;;;;;;;0.00;0.00;;;;;;;14.37;68.09;100613.38;6127076;23;20108;-75
2023/05/14 20:09:46;;;;;;;0.00;0.00;;;;;;;14.34;68.83;100611.22;6150980;23;20029;-74
2023/05/14 20:12:15;;;;;;;0.00;0.00;;;;;;;14.19;68.39;100605.81;6153029;23;20001;-76
2023/05/14 20:14:49;;;;;;;0.00;0.00;;;;;;;14.20;68.83;100615.72;6249086;22;20100;-77
2023/05/14 20:17:19;;;;;;;0.00;0.00;;;;;;;14.14;68.91;100617.66;6124672;23;20009;-76
2023/05/14 20:19:51;;;;;;;0.00;0.00;;;;;;;13.99;68.83;100595.75;6142695;23;20017;-78
2023/05/14 20:22:16;;;;;;;0.00;0.00;;;;;;;13.97;68.55;100598.78;6272585;22;20008;-77
2023/05/14 20:25:02;;;;;;;0.00;0.00;;;;;;;14.00;68.49;100611.97;6118386;22;20084;-78
2023/05/14 20:27:31;;;;;;;0.00;0.00;;;;;;;13.82;68.57;100582.41;6266586;22;20013;-79